createdAt,value
2018-09-08T00:01:35.034Z,83.98
2018-09-08T00:04:03.457Z,85.28
2018-09-08T00:06:36.614Z,85.94
2018-09-08T00:09:07.875Z,86.86
2018-09-08T00:11:36.297Z,86.85
2018-09-08T00:14:04.820Z,86.99
2018-09-08T00:16:38.639Z,87.06
2018-09-08T00:19:12.349Z,87.12
2018-09-08T00:21:46.024Z,86.78
2018-09-08T00:24:19.772Z,86.62
2018-09-08T00:26:47.330Z,86.73
2018-09-08T00:29:24.872Z,86.84
2018-09-08T00:31:53.355Z,86.51
2018-09-08T00:34:21.980Z,86.89
2018-09-08T00:36:50.429Z,87.40
2018-09-08T00:39:18.856Z,87.12
2018-09-08T00:41:47.313Z,87.03
2018-09-08T00:44:15.752Z,86.32
2018-09-08T00:46:44.210Z,86.23
2018-09-08T00:49:12.653Z,85.68
2018-09-08T00:51:41.116Z,85.08
2018-09-08T00:54:09.549Z,84.70
2018-09-08T00:56:38.026Z,85.06
2018-09-08T00:59:06.531Z,84.57
2018-09-08T01:01:36.216Z,83.89
2018-09-08T01:04:04.729Z,83.84
2018-09-08T01:06:33.149Z,84.86
2018-09-08T01:09:01.604Z,85.58
2018-09-08T01:11:30.085Z,86.25
2018-09-08T01:13:58.505Z,86.91
2018-09-08T01:16:26.921Z,87.19
2018-09-08T01:18:55.346Z,87.44
2018-09-08T01:21:23.804Z,88.35
2018-09-08T01:23:53.493Z,87.86
2018-09-08T01:26:22.610Z,88.22
2018-09-08T01:28:51.929Z,89.05
2018-09-08T01:31:20.792Z,88.64
2018-09-08T01:33:49.196Z,89.15
2018-09-08T01:36:17.657Z,89.27
2018-09-08T01:38:46.093Z,89.03
2018-09-08T01:41:14.506Z,88.67
2018-09-08T01:43:42.929Z,89.09
2018-09-08T01:46:11.343Z,89.56
2018-09-08T01:48:39.777Z,89.47
2018-09-08T01:51:08.256Z,89.79
2018-09-08T01:53:36.687Z,90.12
2018-09-08T01:56:05.133Z,91.11
2018-09-08T01:58:33.644Z,91.14
2018-09-08T02:01:02.082Z,91.55
2018-09-08T02:03:30.500Z,91.05
2018-09-08T02:05:58.905Z,91.01
2018-09-08T02:08:27.333Z,90.80
2018-09-08T02:10:55.736Z,90.97
2018-09-08T02:13:24.149Z,90.54
2018-09-08T02:15:52.557Z,90.24
2018-09-08T02:18:21.053Z,91.15
2018-09-08T02:20:49.457Z,90.93
2018-09-08T02:23:17.937Z,91.42
2018-09-08T02:25:46.328Z,91.57
2018-09-08T02:28:14.761Z,91.92
2018-09-08T02:30:43.165Z,91.98
2018-09-08T02:33:11.629Z,91.67
2018-09-08T02:35:40.025Z,92.12
2018-09-08T02:38:08.469Z,92.30
2018-09-08T02:40:36.902Z,91.63
2018-09-08T02:43:05.413Z,91.13
2018-09-08T02:45:33.872Z,90.59
2018-09-08T02:48:02.317Z,90.20
2018-09-08T02:50:32.627Z,89.95
2018-09-08T02:53:00.504Z,90.56
2018-09-08T02:55:27.892Z,90.10
2018-09-08T02:57:55.321Z,91.00
2018-09-08T03:00:22.545Z,90.47
2018-09-08T03:02:49.929Z,90.75
2018-09-08T03:05:17.216Z,90.21
2018-09-08T03:07:44.457Z,91.17
2018-09-08T03:10:11.834Z,91.48
2018-09-08T03:12:39.078Z,92.40
2018-09-08T03:15:06.327Z,92.94
2018-09-08T03:17:33.575Z,93.30
2018-09-08T03:20:00.893Z,93.58
2018-09-08T03:22:28.120Z,93.72
2018-09-08T03:24:55.375Z,94.33
2018-09-08T03:27:22.614Z,94.53
2018-09-08T03:29:49.868Z,94.83
2018-09-08T03:32:17.106Z,95.44
2018-09-08T03:34:44.369Z,94.56
2018-09-08T03:37:11.591Z,94.73
2018-09-08T03:39:38.823Z,95.08
2018-09-08T03:42:06.046Z,94.93
2018-09-08T03:44:33.329Z,94.73
2018-09-08T03:47:00.661Z,93.74
2018-09-08T03:49:27.913Z,92.91
2018-09-08T03:51:55.154Z,93.07
2018-09-08T03:54:22.406Z,93.42
2018-09-08T03:56:49.629Z,94.21
2018-09-08T03:59:16.873Z,93.74
2018-09-08T04:01:44.099Z,94.46
2018-09-08T04:04:12.489Z,93.73
2018-09-08T04:06:40.877Z,93.83
2018-09-08T04:09:10.393Z,94.10
2018-09-08T04:11:39.005Z,95.26
2018-09-08T04:14:07.978Z,95.84
2018-09-08T04:16:36.375Z,96.14
2018-09-08T04:19:04.858Z,96.89
2018-09-08T04:21:33.246Z,97.21
2018-09-08T04:24:01.717Z,97.31
2018-09-08T04:26:30.196Z,97.88
2018-09-08T04:28:58.597Z,97.71
2018-09-08T04:31:27.058Z,97.86
2018-09-08T04:33:55.485Z,98.36
2018-09-08T04:36:23.883Z,98.28
2018-09-08T04:38:52.289Z,98.48
2018-09-08T04:41:20.693Z,98.51
2018-09-08T04:43:49.514Z,98.01
2018-09-08T04:46:17.966Z,97.74
2018-09-08T04:48:46.367Z,97.59
2018-09-08T04:51:14.757Z,97.32
2018-09-08T04:53:43.211Z,97.29
2018-09-08T04:56:11.616Z,96.80
2018-09-08T04:58:40.030Z,96.93
2018-09-08T05:01:08.476Z,97.44
2018-09-08T05:03:36.945Z,98.02
2018-09-08T05:06:05.365Z,98.14
2018-09-08T05:08:33.819Z,98.18
2018-09-08T05:11:02.261Z,98.38
2018-09-08T05:13:30.665Z,97.59
2018-09-08T05:15:59.085Z,97.47
2018-09-08T05:18:27.502Z,97.39
2018-09-08T05:20:55.979Z,97.94
2018-09-08T05:23:24.431Z,97.58
2018-09-08T05:25:52.970Z,97.88
2018-09-08T05:28:21.382Z,97.79
2018-09-08T05:30:49.818Z,97.34
2018-09-08T05:33:18.330Z,97.22
2018-09-08T05:35:46.792Z,96.88
2018-09-08T05:38:15.325Z,96.97
2018-09-08T05:40:43.784Z,96.98
2018-09-08T05:43:12.205Z,96.55
2018-09-08T05:45:40.680Z,96.95
2018-09-08T05:48:09.130Z,96.21
2018-09-08T05:50:37.552Z,95.78
2018-09-08T05:53:06.079Z,95.41
2018-09-08T05:55:34.585Z,95.24
2018-09-08T05:58:03.006Z,95.21
2018-09-08T06:00:31.477Z,94.78
2018-09-08T06:02:59.996Z,94.79
2018-09-08T06:05:29.614Z,94.38
2018-09-08T06:07:58.191Z,94.39
2018-09-08T06:10:26.838Z,94.02
2018-09-08T06:12:55.401Z,95.01
2018-09-08T06:15:23.950Z,94.52
2018-09-08T06:17:52.353Z,94.20
2018-09-08T06:20:20.810Z,93.21
2018-09-08T06:22:49.239Z,92.26
2018-09-08T06:25:17.691Z,92.00
2018-09-08T06:27:46.135Z,91.08
2018-09-08T06:30:14.578Z,90.59
2018-09-08T06:32:42.993Z,90.60
2018-09-08T06:35:11.558Z,90.19
2018-09-08T06:37:39.886Z,88.86
2018-09-08T06:40:08.398Z,88.52
2018-09-08T06:42:36.852Z,87.34
2018-09-08T06:45:05.432Z,86.03
2018-09-08T06:47:33.806Z,86.17
2018-09-08T06:50:02.298Z,85.69
2018-09-08T06:52:30.746Z,85.09
2018-09-08T06:54:59.208Z,84.81
2018-09-08T06:57:27.620Z,84.44
2018-09-08T06:59:56.061Z,83.19
2018-09-08T07:02:24.561Z,83.11
2018-09-08T07:04:53.013Z,84.27
2018-09-08T07:07:21.451Z,82.67
2018-09-08T07:09:49.909Z,82.36
2018-09-08T07:12:18.365Z,81.06
2018-09-08T07:14:46.817Z,80.28
2018-09-08T07:17:15.304Z,80.57
2018-09-08T07:19:43.736Z,80.07
2018-09-08T07:22:12.197Z,79.90
2018-09-08T07:24:40.689Z,80.02
2018-09-08T07:27:09.175Z,78.95
2018-09-08T07:29:37.606Z,77.48
2018-09-08T07:32:06.066Z,75.72
2018-09-08T07:34:34.467Z,75.84
2018-09-08T07:37:02.933Z,75.26
2018-09-08T07:39:31.413Z,73.64
2018-09-08T07:41:59.895Z,73.51
2018-09-08T07:44:28.338Z,74.15
2018-09-08T07:46:56.858Z,72.35
2018-09-08T07:49:25.350Z,72.14
2018-09-08T07:51:53.801Z,72.21
2018-09-08T07:54:22.238Z,73.01
2018-09-08T07:56:50.693Z,71.68
2018-09-08T07:59:19.283Z,70.02
2018-09-08T08:01:47.715Z,70.07
2018-09-08T08:04:16.142Z,69.17
2018-09-08T08:06:44.593Z,69.61
2018-09-08T08:09:13.057Z,68.81
2018-09-08T08:11:41.500Z,69.35
2018-09-08T08:14:10.033Z,68.75
2018-09-08T08:16:38.604Z,68.13
2018-09-08T08:19:07.104Z,69.02
2018-09-08T08:21:35.619Z,68.00
2018-09-08T08:24:04.106Z,67.31
2018-09-08T08:26:32.537Z,67.38
2018-09-08T08:29:01.413Z,66.28
2018-09-08T08:31:29.902Z,64.99
2018-09-08T08:33:58.352Z,64.13
2018-09-08T08:36:26.870Z,65.30
2018-09-08T08:38:55.849Z,63.86
2018-09-08T08:41:24.356Z,63.24
2018-09-08T08:43:52.799Z,62.82
2018-09-08T08:46:21.234Z,62.62
2018-09-08T08:48:49.664Z,62.04
2018-09-08T08:51:29.425Z,62.51
2018-09-08T08:54:09.152Z,62.96
2018-09-08T08:56:37.609Z,60.40
2018-09-08T08:59:06.038Z,60.29
2018-09-08T09:01:34.511Z,61.31
2018-09-08T09:04:02.986Z,59.21
2018-09-08T09:06:31.426Z,58.18
2018-09-08T09:08:59.945Z,57.97
2018-09-08T09:11:28.805Z,57.96
2018-09-08T09:13:57.242Z,57.48
2018-09-08T09:16:25.712Z,56.45
2018-09-08T09:19:05.241Z,56.95
2018-09-08T09:21:44.955Z,57.28
2018-09-08T09:24:25.329Z,57.60
2018-09-08T09:26:53.481Z,56.90
2018-09-08T09:29:21.923Z,57.23
2018-09-08T09:31:50.406Z,57.52
2018-09-08T09:34:18.877Z,56.97
2018-09-08T09:36:47.407Z,56.73
2018-09-08T09:39:15.834Z,56.67
2018-09-08T09:41:44.385Z,57.38
2018-09-08T09:44:12.934Z,57.42
2018-09-08T09:46:41.854Z,57.44
2018-09-08T09:49:10.245Z,56.75
2018-09-08T09:51:38.687Z,57.65
2018-09-08T09:54:07.125Z,57.16
2018-09-08T09:56:35.613Z,57.30
2018-09-08T09:59:04.078Z,58.30
2018-09-08T10:01:37.943Z,57.55
2018-09-08T10:04:06.395Z,57.97
2018-09-08T10:06:34.896Z,57.33
2018-09-08T10:09:03.540Z,57.67
2018-09-08T10:11:32.075Z,57.21
2018-09-08T10:14:00.501Z,56.54
2018-09-08T10:16:28.958Z,56.86
2018-09-08T10:18:57.548Z,57.33
2018-09-08T10:21:26.000Z,56.81
2018-09-08T10:24:05.153Z,57.27
2018-09-08T10:26:22.928Z,55.59
2018-09-08T10:28:51.345Z,56.04
2018-09-08T10:31:19.797Z,55.85
2018-09-08T10:33:48.261Z,54.95
2018-09-08T10:36:16.724Z,55.06
2018-09-08T10:38:45.282Z,54.91
2018-09-08T10:41:13.720Z,54.89
2018-09-08T10:43:42.198Z,54.01
2018-09-08T10:46:10.744Z,53.74
2018-09-08T10:48:39.196Z,53.03
2018-09-08T10:51:17.670Z,52.70
2018-09-08T10:53:46.141Z,52.57
2018-09-08T10:56:14.532Z,52.72
2018-09-08T10:58:42.995Z,54.04
2018-09-08T11:01:11.436Z,54.21
2018-09-08T11:03:39.898Z,54.06
2018-09-08T11:06:08.334Z,53.87
2018-09-08T11:08:36.757Z,53.65
2018-09-08T11:11:05.186Z,54.26
2018-09-08T11:13:33.616Z,55.59
2018-09-08T11:16:02.043Z,55.70
2018-09-08T11:18:31.153Z,55.67
2018-09-08T11:20:59.599Z,53.81
2018-09-08T11:23:28.033Z,54.22
2018-09-08T11:25:56.457Z,54.14
2018-09-08T11:28:24.915Z,54.25
2018-09-08T11:30:53.355Z,53.50
2018-09-08T11:33:21.838Z,51.94
2018-09-08T11:35:50.282Z,51.57
2018-09-08T11:38:18.863Z,52.13
2018-09-08T11:40:47.279Z,51.87
2018-09-08T11:43:15.726Z,51.94
2018-09-08T11:45:44.130Z,51.23
2018-09-08T11:48:12.566Z,51.66
2018-09-08T11:50:41.017Z,52.09
2018-09-08T11:53:09.437Z,50.41
2018-09-08T11:55:37.936Z,50.87
2018-09-08T11:58:06.362Z,50.43
2018-09-08T12:00:34.781Z,50.53
2018-09-08T12:03:03.272Z,49.26
2018-09-08T12:05:31.646Z,50.12
2018-09-08T12:08:00.086Z,49.21
2018-09-08T12:10:28.561Z,49.38
2018-09-08T12:12:56.965Z,48.54
2018-09-08T12:15:25.422Z,48.80
2018-09-08T12:17:53.874Z,48.80
2018-09-08T12:20:22.317Z,48.12
2018-09-08T12:22:50.790Z,49.41
2018-09-08T12:25:19.182Z,48.38
2018-09-08T12:27:47.589Z,48.81
2018-09-08T12:30:15.977Z,47.64
2018-09-08T12:32:44.358Z,49.45
2018-09-08T12:35:12.773Z,48.09
2018-09-08T12:37:41.182Z,47.83
2018-09-08T12:40:09.610Z,47.25
2018-09-08T12:42:38.029Z,46.75
2018-09-08T12:45:06.871Z,47.65
2018-09-08T12:47:35.296Z,47.41
2018-09-08T12:50:03.713Z,45.96
2018-09-08T12:52:32.153Z,46.80
2018-09-08T12:55:00.613Z,46.46
2018-09-08T12:57:29.051Z,47.38
2018-09-08T12:59:57.537Z,45.79
2018-09-08T13:02:26.805Z,45.07
2018-09-08T13:04:55.249Z,44.66
2018-09-08T13:07:23.702Z,42.95
2018-09-08T13:09:52.169Z,43.71
2018-09-08T13:12:20.585Z,43.17
2018-09-08T13:14:49.057Z,42.87
2018-09-08T13:17:17.527Z,42.64
2018-09-08T13:19:45.961Z,40.76
2018-09-08T13:22:14.404Z,41.54
2018-09-08T13:24:42.913Z,40.20
2018-09-08T13:27:11.363Z,40.17
2018-09-08T13:29:39.781Z,38.26
2018-09-08T13:32:08.228Z,36.94
2018-09-08T13:34:36.682Z,35.30
2018-09-08T13:37:05.163Z,32.54
2018-09-08T13:39:33.639Z,34.23
2018-09-08T13:42:02.045Z,36.55
2018-09-08T13:44:30.549Z,36.81
2018-09-08T13:46:59.059Z,35.30
2018-09-08T13:49:27.430Z,33.75
2018-09-08T13:51:55.820Z,33.66
2018-09-08T13:54:24.247Z,32.21
2018-09-08T13:56:53.877Z,33.60
2018-09-08T13:59:22.303Z,33.71
2018-09-08T14:01:50.726Z,33.59
2018-09-08T14:04:19.264Z,34.83
2018-09-08T14:06:47.636Z,33.89
2018-09-08T14:09:16.182Z,33.88
2018-09-08T14:11:44.621Z,34.43
2018-09-08T14:14:13.192Z,36.35
2018-09-08T14:16:41.635Z,36.45
2018-09-08T14:19:10.086Z,36.35
2018-09-08T14:21:38.605Z,36.38
2018-09-08T14:24:07.073Z,34.70
2018-09-08T14:26:35.517Z,36.45
2018-09-08T14:29:03.987Z,37.11
2018-09-08T14:31:32.438Z,38.88
2018-09-08T14:34:00.900Z,38.98
2018-09-08T14:36:29.533Z,38.50
2018-09-08T14:38:57.981Z,39.29
2018-09-08T14:41:26.473Z,39.58
2018-09-08T14:43:55.279Z,40.49
2018-09-08T14:47:48.868Z,39.40
2018-09-08T14:50:17.253Z,39.37
2018-09-08T14:52:46.654Z,37.45
2018-09-08T14:55:15.125Z,38.64
2018-09-08T14:57:44.249Z,37.93
2018-09-08T15:00:12.707Z,37.47
2018-09-08T15:02:41.825Z,39.15
2018-09-08T15:05:11.263Z,36.67
2018-09-08T15:07:39.720Z,36.48
2018-09-08T15:10:09.550Z,36.00
2018-09-08T15:12:37.981Z,36.57
2018-09-08T15:15:06.831Z,38.48
2018-09-08T15:17:35.335Z,39.68
2018-09-08T15:20:03.785Z,39.94
2018-09-08T15:22:32.209Z,39.64
2018-09-08T15:25:00.803Z,40.17
2018-09-08T15:27:29.250Z,40.22
2018-09-08T15:29:57.681Z,41.36
2018-09-08T15:32:26.073Z,40.56
2018-09-08T15:34:54.621Z,40.57
2018-09-08T15:37:23.028Z,41.61
2018-09-08T15:39:51.505Z,41.55
2018-09-08T15:42:19.926Z,42.97
2018-09-08T15:44:48.409Z,42.07
2018-09-08T15:47:16.824Z,42.71
2018-09-08T15:49:45.277Z,43.09
2018-09-08T15:52:14.125Z,42.78
2018-09-08T15:54:42.574Z,43.08
2018-09-08T15:57:11.011Z,43.24
2018-09-08T15:59:39.453Z,43.42
2018-09-08T16:02:07.946Z,43.62
2018-09-08T16:04:36.373Z,43.83
2018-09-08T16:07:05.142Z,44.05
2018-09-08T16:09:33.543Z,43.52
2018-09-08T16:12:02.078Z,42.97
2018-09-08T16:14:30.628Z,43.72
2018-09-08T16:16:59.039Z,45.18
2018-09-08T16:19:27.478Z,44.46
2018-09-08T16:21:55.974Z,44.88
2018-09-08T16:24:24.433Z,45.27
2018-09-08T16:26:52.881Z,45.90
2018-09-08T16:29:21.309Z,46.37
2018-09-08T16:31:49.769Z,46.28
2018-09-08T16:34:18.287Z,47.18
2018-09-08T16:36:46.700Z,47.42
2018-09-08T16:39:15.148Z,47.23
2018-09-08T16:41:43.586Z,47.65
2018-09-08T16:44:12.072Z,47.45
2018-09-08T16:46:40.504Z,48.53
2018-09-08T16:49:16.924Z,48.59
2018-09-08T16:51:45.353Z,47.89
2018-09-08T16:54:13.810Z,48.43
2018-09-08T16:56:42.254Z,49.29
2018-09-08T16:59:10.727Z,49.97
2018-09-08T17:01:39.203Z,49.21
2018-09-08T17:04:07.713Z,49.10
2018-09-08T17:06:36.163Z,49.90
2018-09-08T17:09:05.358Z,49.48
2018-09-08T17:11:33.817Z,49.92
2018-09-08T17:14:02.255Z,50.17
2018-09-08T17:16:30.775Z,50.06
2018-09-08T17:18:59.263Z,49.92
2018-09-08T17:21:27.733Z,49.90
2018-09-08T17:23:56.256Z,50.15
2018-09-08T17:26:31.218Z,50.17
2018-09-08T17:28:59.667Z,50.47
2018-09-08T17:31:28.128Z,51.79
2018-09-08T17:33:56.646Z,51.76
2018-09-08T17:36:25.166Z,51.88
2018-09-08T17:38:53.708Z,52.55
2018-09-08T17:41:22.198Z,52.62
2018-09-08T17:43:51.050Z,53.89
2018-09-08T17:46:19.505Z,53.76
2018-09-08T17:48:47.975Z,53.57
2018-09-08T17:51:16.454Z,54.43
2018-09-08T17:53:44.854Z,53.95
2018-09-08T17:56:13.331Z,54.29
2018-09-08T17:58:41.779Z,55.42
2018-09-08T18:01:10.254Z,55.31
2018-09-08T18:03:38.661Z,55.63
2018-09-08T18:06:07.247Z,57.81
2018-09-08T18:08:35.666Z,59.54
2018-09-08T18:11:04.249Z,58.66
2018-09-08T18:13:32.714Z,60.11
2018-09-08T18:16:01.181Z,61.18
2018-09-08T18:18:29.654Z,62.27
2018-09-08T18:20:58.060Z,61.92
2018-09-08T18:23:26.762Z,62.22
2018-09-08T18:37:49.307Z,63.11
2018-09-08T18:40:18.042Z,60.49
2018-09-08T18:42:46.794Z,60.03
2018-09-08T18:45:15.534Z,63.21
2018-09-08T18:47:44.169Z,59.79
2018-09-08T18:50:13.162Z,60.49
2018-09-08T18:52:41.793Z,61.80
2018-09-08T18:55:10.458Z,62.11
2018-09-08T18:57:39.152Z,62.46
2018-09-08T19:00:07.774Z,65.01
2018-09-08T19:02:36.522Z,64.58
2018-09-08T19:08:05.815Z,64.06
2018-09-08T19:10:35.688Z,65.06
2018-09-08T19:13:05.222Z,63.78
2018-09-08T19:15:33.903Z,65.04
2018-09-08T19:18:02.501Z,65.46
2018-09-08T19:20:37.902Z,66.21
2018-09-08T19:23:12.581Z,68.09
2018-09-08T19:25:41.313Z,68.04
2018-09-08T19:28:09.973Z,70.08
2018-09-08T19:30:38.664Z,69.49
2018-09-08T19:33:07.409Z,70.01
2018-09-08T19:35:36.831Z,70.63
2018-09-08T19:38:05.363Z,70.57
2018-09-08T19:40:39.153Z,71.12
2018-09-08T19:43:07.674Z,71.70
2018-09-08T19:45:37.364Z,71.14
2018-09-08T19:48:07.653Z,71.93
2018-09-08T19:50:36.397Z,72.08
2018-09-08T19:53:10.102Z,72.52
2018-09-08T19:55:38.529Z,72.54
2018-09-08T19:58:12.146Z,73.34
2018-09-08T20:00:40.632Z,73.59
2018-09-08T20:03:27.279Z,72.59
2018-09-08T20:05:55.663Z,72.03
2018-09-08T20:08:24.081Z,73.54
2018-09-08T20:10:52.851Z,73.91
2018-09-08T20:13:22.252Z,73.33
2018-09-08T20:15:53.683Z,73.89
2018-09-08T20:18:22.355Z,73.60
2018-09-08T20:20:50.759Z,72.42
2018-09-08T20:23:19.186Z,72.98
2018-09-08T20:25:57.461Z,71.85
2018-09-08T20:28:25.905Z,72.30
2018-09-08T20:30:54.306Z,72.87
2018-09-08T20:33:23.714Z,74.05
2018-09-08T20:35:52.658Z,72.45
2018-09-08T20:38:21.338Z,73.51
2018-09-08T20:40:50.907Z,74.81
2018-09-08T20:43:19.561Z,75.10
2018-09-08T20:45:48.449Z,74.64
2018-09-08T20:48:22.520Z,74.36
2018-09-08T20:50:51.226Z,74.25
2018-09-08T20:53:20.020Z,75.07
2018-09-08T20:55:54.745Z,74.15
2018-09-08T20:58:23.467Z,74.52
2018-09-08T21:00:51.914Z,74.48
2018-09-08T21:03:20.351Z,75.00
2018-09-08T21:05:48.774Z,75.03
2018-09-08T21:08:17.215Z,74.79
2018-09-08T21:10:45.614Z,74.86
2018-09-08T21:13:14.167Z,76.09
2018-09-08T21:15:42.539Z,75.67
2018-09-08T21:18:10.937Z,75.80
2018-09-08T21:20:39.359Z,75.72
2018-09-08T21:23:07.766Z,75.39
2018-09-08T21:25:36.198Z,75.87
2018-09-08T21:28:04.623Z,76.40
2018-09-08T21:30:33.029Z,76.98
2018-09-08T21:33:01.459Z,77.22
2018-09-08T21:35:29.861Z,77.53
2018-09-08T21:37:58.262Z,76.93
2018-09-08T21:40:26.704Z,77.37
2018-09-08T21:42:55.086Z,77.06
2018-09-08T21:45:23.497Z,77.49
2018-09-08T21:47:51.901Z,77.89
2018-09-08T21:50:20.314Z,77.06
2018-09-08T21:52:48.693Z,77.20
2018-09-08T21:55:17.193Z,77.65
2018-09-08T21:57:45.576Z,77.95
2018-09-08T22:00:14.078Z,78.72
2018-09-08T22:02:42.521Z,78.80
2018-09-08T22:05:10.951Z,78.85
2018-09-08T22:07:39.409Z,78.61
2018-09-08T22:10:07.890Z,78.60
2018-09-08T22:12:36.342Z,78.45
2018-09-08T22:15:04.907Z,78.96
2018-09-08T22:17:33.306Z,79.18
2018-09-08T22:20:01.738Z,78.94
2018-09-08T22:22:30.194Z,79.43
2018-09-08T22:24:58.625Z,79.57
2018-09-08T22:27:27.021Z,79.66
2018-09-08T22:29:55.450Z,79.46
2018-09-08T22:32:23.851Z,79.49
2018-09-08T22:34:52.313Z,80.29
2018-09-08T22:37:21.029Z,80.31
2018-09-08T22:39:49.712Z,81.02
2018-09-08T22:42:18.162Z,81.08
2018-09-08T22:44:46.577Z,80.74
2018-09-08T22:47:15.024Z,81.20
2018-09-08T22:49:43.533Z,81.56
2018-09-08T22:52:11.979Z,81.91
2018-09-08T22:54:40.450Z,82.58
2018-09-08T22:57:08.912Z,82.11
2018-09-08T22:59:37.400Z,82.32
2018-09-08T23:02:05.881Z,82.66
2018-09-08T23:04:34.368Z,82.97
2018-09-08T23:07:02.761Z,83.83
2018-09-08T23:09:31.181Z,83.74
2018-09-08T23:11:59.595Z,84.52
2018-09-08T23:14:28.028Z,84.47
2018-09-08T23:16:56.453Z,84.24
2018-09-08T23:19:24.918Z,84.20
2018-09-08T23:21:53.362Z,84.52
2018-09-08T23:24:21.837Z,84.37
2018-09-08T23:26:50.244Z,84.67
2018-09-08T23:29:18.718Z,84.88
2018-09-08T23:31:47.117Z,85.17
2018-09-08T23:34:15.574Z,84.70
2018-09-08T23:36:44.117Z,85.25
2018-09-08T23:39:12.593Z,85.54
2018-09-08T23:41:40.970Z,85.08
2018-09-08T23:44:09.479Z,84.57
2018-09-08T23:46:37.909Z,84.65
2018-09-08T23:49:06.321Z,84.70
2018-09-08T23:51:34.747Z,85.09
2018-09-08T23:54:03.173Z,85.07
2018-09-08T23:56:31.621Z,85.33
2018-09-08T23:59:00.085Z,85.20
